createdAt,value
2019-05-09T00:00:37.171Z,98110.86
2019-05-09T00:03:08.044Z,98115.40
2019-05-09T00:05:39.055Z,98106.77
2019-05-09T00:08:09.865Z,98098.14
2019-05-09T00:10:41.949Z,98100.93
2019-05-09T00:13:13.772Z,98095.83
2019-05-09T00:15:44.717Z,98084.44
2019-05-09T00:18:15.552Z,98086.05
2019-05-09T00:20:55.554Z,98076.53
2019-05-09T00:23:27.520Z,98087.72
2019-05-09T00:25:58.333Z,98081.63
2019-05-09T00:28:33.723Z,98078.06
2019-05-09T00:31:08.059Z,98077.22
2019-05-09T00:33:39.789Z,98081.06
2019-05-09T00:36:10.559Z,98080.50
2019-05-09T00:38:45.849Z,98072.67
2019-05-09T00:41:16.592Z,98061.38
2019-05-09T00:43:54.308Z,98069.42
2019-05-09T00:46:38.744Z,98068.45
2019-05-09T00:49:17.716Z,98074.25
2019-05-09T00:51:48.506Z,98067.56
2019-05-09T00:54:19.341Z,98068.59
2019-05-09T00:56:50.400Z,98069.89
2019-05-09T00:59:21.211Z,98066.00
2019-05-09T01:01:54.136Z,98059.09
2019-05-09T01:04:24.623Z,98061.63
2019-05-09T01:06:55.387Z,98061.50
2019-05-09T01:09:26.369Z,98060.70
2019-05-09T01:11:57.181Z,98061.50
2019-05-09T01:14:27.950Z,98063.73
2019-05-09T01:16:58.773Z,98064.91
2019-05-09T01:19:29.580Z,98054.61
2019-05-09T01:22:00.373Z,98057.20
2019-05-09T01:24:33.786Z,98050.45
2019-05-09T01:27:04.389Z,98059.89
2019-05-09T01:29:35.314Z,98056.45
2019-05-09T01:32:14.422Z,98058.23
2019-05-09T01:34:45.374Z,98057.42
2019-05-09T01:37:16.163Z,98050.50
2019-05-09T01:39:47.061Z,98048.67
2019-05-09T01:42:17.999Z,98044.34
2019-05-09T01:44:48.943Z,98043.41
2019-05-09T01:47:19.783Z,98038.22
2019-05-09T01:49:51.277Z,98035.50
2019-05-09T01:52:23.206Z,98045.42
2019-05-09T01:54:54.218Z,98043.20
2019-05-09T01:57:25.158Z,98040.84
2019-05-09T01:59:56.028Z,98033.70
2019-05-09T02:02:26.850Z,98041.12
2019-05-09T02:04:57.788Z,98034.91
2019-05-09T02:07:28.745Z,98036.20
2019-05-09T02:09:59.615Z,98026.64
2019-05-09T02:12:30.563Z,98028.70
2019-05-09T02:15:08.098Z,98023.89
2019-05-09T02:17:58.814Z,98027.32
2019-05-09T02:20:24.308Z,98021.70
2019-05-09T02:22:55.012Z,98015.75
2019-05-09T02:25:25.974Z,98023.08
2019-05-09T02:27:56.745Z,98022.91
2019-05-09T02:30:27.632Z,98022.77
2019-05-09T02:32:58.503Z,98016.25
2019-05-09T02:35:36.555Z,98013.98
2019-05-09T02:38:01.843Z,98015.10
2019-05-09T02:40:32.532Z,98009.06
2019-05-09T02:43:03.315Z,98012.69
2019-05-09T02:45:41.038Z,98006.97
2019-05-09T02:48:11.832Z,98002.11
2019-05-09T02:50:42.466Z,97997.61
2019-05-09T02:53:13.124Z,98001.66
2019-05-09T02:55:43.809Z,97994.25
2019-05-09T02:58:20.271Z,98001.22
2019-05-09T03:01:03.279Z,97997.11
2019-05-09T03:03:39.260Z,97992.20
2019-05-09T03:06:09.462Z,97994.74
2019-05-09T03:08:40.235Z,97990.16
2019-05-09T03:11:10.883Z,97989.61
2019-05-09T03:13:41.537Z,97996.39
2019-05-09T03:16:15.119Z,97989.13
2019-05-09T03:18:45.751Z,97991.63
2019-05-09T03:21:25.358Z,97990.38
2019-05-09T03:23:58.918Z,97985.52
2019-05-09T03:26:32.200Z,97993.27
2019-05-09T03:29:11.944Z,97987.69
2019-05-09T03:31:43.568Z,97982.97
2019-05-09T03:34:14.265Z,97984.30
2019-05-09T03:36:44.943Z,97986.48
2019-05-09T03:39:15.580Z,97987.47
2019-05-09T03:41:48.519Z,97985.23
2019-05-09T03:44:18.474Z,97988.58
2019-05-09T03:46:58.475Z,97979.30
2019-05-09T03:49:29.068Z,97985.55
2019-05-09T03:51:59.684Z,97991.13
2019-05-09T03:54:30.289Z,97989.78
2019-05-09T03:57:11.187Z,97985.82
2019-05-09T03:59:41.590Z,97982.73
2019-05-09T04:02:12.245Z,97986.61
2019-05-09T04:04:42.838Z,97987.73
2019-05-09T04:07:13.514Z,97984.59
2019-05-09T04:09:44.180Z,97983.66
2019-05-09T04:12:14.864Z,97980.23
2019-05-09T04:14:47.513Z,97979.30
2019-05-09T04:17:18.284Z,97978.00
2019-05-09T04:19:48.968Z,97978.23
2019-05-09T04:22:19.508Z,97977.64
2019-05-09T04:24:50.648Z,97974.30
2019-05-09T04:27:29.697Z,97973.77
2019-05-09T04:29:58.898Z,97974.88
2019-05-09T04:32:29.358Z,97973.98
2019-05-09T04:35:00.044Z,97976.63
2019-05-09T04:37:31.175Z,97974.92
2019-05-09T04:40:03.424Z,97973.14
2019-05-09T04:42:34.996Z,97975.02
2019-05-09T04:45:22.476Z,97976.31
2019-05-09T04:47:53.153Z,97973.45
2019-05-09T04:50:25.075Z,97976.98
2019-05-09T04:52:57.986Z,97974.30
2019-05-09T04:55:30.642Z,97968.86
2019-05-09T04:58:01.339Z,97980.51
2019-05-09T05:00:50.846Z,97975.78
2019-05-09T05:03:21.598Z,97970.77
2019-05-09T05:05:52.468Z,97969.80
2019-05-09T05:08:22.909Z,97970.11
2019-05-09T05:10:53.308Z,97970.82
2019-05-09T05:13:26.755Z,97965.50
2019-05-09T05:15:57.825Z,97969.16
2019-05-09T05:18:28.567Z,97979.69
2019-05-09T05:20:59.318Z,97970.61
2019-05-09T05:23:38.073Z,97975.06
2019-05-09T05:26:10.320Z,97974.80
2019-05-09T05:28:40.979Z,97971.69
2019-05-09T05:31:11.900Z,97970.56
2019-05-09T05:33:53.912Z,97983.59
2019-05-09T05:36:24.016Z,97970.36
2019-05-09T05:38:54.696Z,97970.55
2019-05-09T05:41:25.327Z,97979.30
2019-05-09T05:43:58.010Z,97975.90
2019-05-09T05:46:50.548Z,97972.02
2019-05-09T05:49:19.488Z,97976.97
2019-05-09T05:51:50.145Z,97972.31
2019-05-09T05:54:22.169Z,97970.44
2019-05-09T05:56:52.989Z,97971.98
2019-05-09T05:59:23.626Z,97973.63
2019-05-09T06:01:58.664Z,97973.39
2019-05-09T06:04:30.508Z,97974.05
2019-05-09T06:07:01.218Z,97979.22
2019-05-09T06:09:32.038Z,97976.05
2019-05-09T06:12:02.917Z,97978.68
2019-05-09T06:14:33.823Z,97979.12
2019-05-09T06:17:04.708Z,97977.89
2019-05-09T06:19:37.959Z,97976.65
2019-05-09T06:22:08.498Z,97978.33
2019-05-09T06:24:39.290Z,97977.03
2019-05-09T06:27:10.731Z,97982.16
2019-05-09T06:29:41.509Z,97978.64
2019-05-09T06:32:12.263Z,97980.59
2019-05-09T06:34:43.094Z,97980.44
2019-05-09T06:37:13.973Z,97973.52
2019-05-09T06:39:45.182Z,97984.07
2019-05-09T06:42:18.095Z,97981.84
2019-05-09T06:45:07.742Z,97986.20
2019-05-09T06:47:42.073Z,97985.20
2019-05-09T06:50:14.919Z,97991.08
2019-05-09T06:52:47.847Z,97989.89
2019-05-09T06:55:18.617Z,97988.09
2019-05-09T06:57:49.429Z,97988.09
2019-05-09T07:00:37.937Z,97982.48
2019-05-09T07:03:14.377Z,97993.52
2019-05-09T07:06:04.075Z,97988.09
2019-05-09T07:08:47.525Z,97992.55
2019-05-09T07:11:27.990Z,97991.02
2019-05-09T07:13:59.282Z,98001.11
2019-05-09T07:16:30.599Z,97991.70
2019-05-09T07:19:01.871Z,97992.41
2019-05-09T07:21:51.791Z,97994.39
2019-05-09T07:24:23.596Z,97997.58
2019-05-09T07:26:54.976Z,97990.31
2019-05-09T07:29:28.463Z,97996.84
2019-05-09T07:32:07.407Z,97991.42
2019-05-09T07:34:42.551Z,97988.18
2019-05-09T07:37:14.214Z,97994.39
2019-05-09T07:39:45.538Z,97984.84
2019-05-09T07:42:18.018Z,97991.00
2019-05-09T07:44:52.471Z,97989.45
2019-05-09T07:47:23.355Z,97991.66
2019-05-09T07:49:54.642Z,97987.38
2019-05-09T07:52:28.236Z,97990.42
2019-05-09T07:54:59.222Z,97992.06
2019-05-09T07:57:31.389Z,97988.58
2019-05-09T08:00:02.918Z,97994.20
2019-05-09T08:02:34.418Z,97989.78
2019-05-09T08:05:08.382Z,97992.20
2019-05-09T08:07:39.679Z,97993.84
2019-05-09T08:10:11.822Z,97991.47
2019-05-09T08:12:43.881Z,97986.98
2019-05-09T08:15:17.482Z,97992.31
2019-05-09T08:17:48.825Z,97987.98
2019-05-09T08:20:23.493Z,97990.17
2019-05-09T08:23:01.876Z,97982.13
2019-05-09T08:25:30.962Z,97983.66
2019-05-09T08:28:02.047Z,97985.25
2019-05-09T08:30:36.259Z,97993.00
2019-05-09T08:33:08.282Z,97985.36
2019-05-09T08:35:38.489Z,97996.05
2019-05-09T08:38:09.973Z,98000.20
2019-05-09T08:40:40.831Z,97997.59
2019-05-09T08:43:12.523Z,97992.07
2019-05-09T08:45:43.735Z,97996.44
2019-05-09T08:48:18.290Z,97992.17
2019-05-09T08:50:53.024Z,98000.17
2019-05-09T08:53:24.445Z,97998.66
2019-05-09T08:55:57.866Z,98001.11
2019-05-09T08:58:29.349Z,97996.59
2019-05-09T09:01:04.125Z,97996.53
2019-05-09T09:03:34.084Z,97996.23
2019-05-09T09:06:08.493Z,98003.00
2019-05-09T09:08:40.079Z,97995.75
2019-05-09T09:11:11.521Z,97995.55
2019-05-09T09:13:42.817Z,97999.02
2019-05-09T09:16:19.961Z,97992.31
2019-05-09T09:18:48.213Z,97991.97
2019-05-09T09:21:20.562Z,97990.48
2019-05-09T09:23:52.758Z,97995.89
2019-05-09T09:26:24.173Z,97998.04
2019-05-09T09:28:57.581Z,97995.35
2019-05-09T09:31:32.414Z,98001.12
2019-05-09T09:34:04.274Z,97995.41
2019-05-09T09:36:38.863Z,98000.41
2019-05-09T09:39:09.714Z,97994.55
2019-05-09T09:41:41.333Z,97993.26
2019-05-09T09:44:12.054Z,97991.28
2019-05-09T09:46:43.888Z,97996.54
2019-05-09T09:49:17.967Z,97992.23
2019-05-09T09:51:49.357Z,97994.20
2019-05-09T09:54:21.198Z,97996.37
2019-05-09T09:56:54.675Z,97992.23
2019-05-09T09:59:48.123Z,97997.53
2019-05-09T10:02:21.555Z,97992.82
2019-05-09T10:04:53.108Z,97992.80
2019-05-09T10:07:24.867Z,97990.08
2019-05-09T10:09:58.377Z,97985.91
2019-05-09T10:12:30.547Z,97983.41
2019-05-09T10:15:18.881Z,97981.27
2019-05-09T10:17:58.260Z,97990.08
2019-05-09T10:20:38.492Z,97985.65
2019-05-09T10:23:17.859Z,97981.81
2019-05-09T10:25:44.206Z,97982.51
2019-05-09T10:28:21.464Z,97986.63
2019-05-09T10:30:50.210Z,97993.84
2019-05-09T10:33:22.255Z,97986.92
2019-05-09T10:35:54.344Z,97989.56
2019-05-09T10:38:27.905Z,97981.95
2019-05-09T10:41:00.814Z,97992.23
2019-05-09T10:43:51.228Z,97987.64
2019-05-09T10:46:49.486Z,97998.34
2019-05-09T10:49:11.690Z,97997.37
2019-05-09T10:51:43.382Z,98007.03
2019-05-09T10:54:15.309Z,97998.69
2019-05-09T10:56:48.679Z,97995.70
2019-05-09T10:59:21.007Z,97992.34
2019-05-09T11:01:51.785Z,97992.36
2019-05-09T11:04:23.854Z,97990.23
2019-05-09T11:06:55.306Z,97981.13
2019-05-09T11:09:29.094Z,97988.71
2019-05-09T11:12:01.247Z,97985.20
2019-05-09T11:14:37.009Z,97976.84
2019-05-09T11:17:12.478Z,97987.47
2019-05-09T11:19:40.052Z,97986.11
2019-05-09T11:22:12.957Z,97982.25
2019-05-09T11:24:48.095Z,97982.14
2019-05-09T11:27:19.012Z,97976.91
2019-05-09T11:29:50.082Z,97974.02
2019-05-09T11:32:20.717Z,97972.89
2019-05-09T11:34:52.802Z,97968.08
2019-05-09T11:37:24.026Z,97967.27
2019-05-09T11:39:55.091Z,97969.51
2019-05-09T11:42:28.350Z,97963.05
2019-05-09T11:44:59.071Z,97971.25
2019-05-09T11:47:49.709Z,97975.45
2019-05-09T11:50:23.209Z,97974.34
2019-05-09T11:52:54.590Z,97986.31
2019-05-09T11:55:35.022Z,97981.72
2019-05-09T11:57:59.021Z,97975.59
2019-05-09T12:00:30.480Z,97984.13
2019-05-09T12:03:01.216Z,97981.16
2019-05-09T12:05:32.040Z,97981.42
2019-05-09T12:08:02.720Z,97983.52
2019-05-09T12:10:33.793Z,97985.46
2019-05-09T12:13:04.856Z,97986.54
2019-05-09T12:15:35.477Z,97984.72
2019-05-09T12:18:11.201Z,97981.16
2019-05-09T12:20:39.272Z,97977.42
2019-05-09T12:23:10.170Z,97976.72
2019-05-09T12:25:40.881Z,97970.43
2019-05-09T12:28:11.611Z,97973.54
2019-05-09T12:30:42.318Z,97976.71
2019-05-09T12:33:13.088Z,97976.31
2019-05-09T12:35:44.005Z,97973.19
2019-05-09T12:38:14.597Z,97977.87
2019-05-09T12:40:45.339Z,97976.38
2019-05-09T12:43:18.374Z,97982.06
2019-05-09T12:45:52.145Z,97977.34
2019-05-09T12:48:22.816Z,97977.74
2019-05-09T12:50:53.539Z,97979.27
2019-05-09T12:53:24.286Z,97983.20
2019-05-09T12:56:00.515Z,97983.70
2019-05-09T12:58:32.548Z,97974.71
2019-05-09T13:01:03.221Z,97983.38
2019-05-09T13:03:35.119Z,97978.36
2019-05-09T13:06:07.984Z,97980.27
2019-05-09T13:08:39.353Z,97980.87
2019-05-09T13:11:11.642Z,97978.76
2019-05-09T13:13:48.369Z,97973.94
2019-05-09T13:16:47.361Z,97968.50
2019-05-09T13:19:10.320Z,97970.17
2019-05-09T13:21:45.071Z,97975.25
2019-05-09T13:24:23.691Z,97979.50
2019-05-09T13:26:55.071Z,97980.87
2019-05-09T13:29:29.492Z,97969.46
2019-05-09T13:31:59.296Z,97974.07
2019-05-09T13:34:31.857Z,97971.54
2019-05-09T13:37:05.512Z,97976.85
2019-05-09T13:39:39.673Z,97978.88
2019-05-09T13:42:13.453Z,97981.51
2019-05-09T13:44:47.587Z,97979.17
2019-05-09T13:47:18.503Z,97975.92
2019-05-09T13:49:55.805Z,97975.27
2019-05-09T13:52:29.819Z,97973.22
2019-05-09T13:55:03.263Z,97974.36
2019-05-09T13:57:41.763Z,97976.33
2019-05-09T14:00:14.059Z,97975.45
2019-05-09T14:02:45.448Z,97975.56
2019-05-09T14:05:18.940Z,97970.80
2019-05-09T14:07:55.223Z,97969.84
2019-05-09T14:10:29.012Z,97980.18
2019-05-09T14:13:07.018Z,97977.18
2019-05-09T14:15:34.014Z,97969.56
2019-05-09T14:18:05.159Z,97959.00
2019-05-09T14:20:37.741Z,97959.31
2019-05-09T14:23:12.816Z,97962.42
2019-05-09T14:25:48.424Z,97970.45
2019-05-09T14:28:20.340Z,97968.48
2019-05-09T14:30:51.231Z,97963.16
2019-05-09T14:33:26.803Z,97963.28
2019-05-09T14:35:59.667Z,97960.36
2019-05-09T14:38:32.824Z,97957.03
2019-05-09T14:41:19.101Z,97966.48
2019-05-09T14:43:49.590Z,97960.59
2019-05-09T14:46:20.669Z,97959.37
2019-05-09T14:48:53.904Z,97969.02
2019-05-09T14:51:28.245Z,97967.38
2019-05-09T14:54:00.900Z,97970.47
2019-05-09T14:56:31.641Z,97968.88
2019-05-09T14:59:02.440Z,97977.59
2019-05-09T15:01:34.361Z,97969.65
2019-05-09T15:04:09.057Z,97969.95
2019-05-09T15:06:40.580Z,97976.31
2019-05-09T15:09:20.871Z,97979.69
2019-05-09T15:11:55.110Z,97982.33
2019-05-09T15:14:28.964Z,97981.02
2019-05-09T15:17:00.023Z,97983.44
2019-05-09T15:19:37.887Z,97967.11
2019-05-09T15:22:11.010Z,97961.94
2019-05-09T15:24:44.101Z,97962.58
2019-05-09T15:27:19.634Z,97966.51
2019-05-09T15:29:50.505Z,97971.05
2019-05-09T15:32:21.670Z,97980.58
2019-05-09T15:34:53.411Z,97978.87
2019-05-09T15:37:28.813Z,97983.22
2019-05-09T15:40:02.677Z,97983.44
2019-05-09T15:42:33.574Z,97980.19
2019-05-09T15:45:07.816Z,97987.95
2019-05-09T15:47:39.709Z,97986.38
2019-05-09T15:50:22.765Z,97987.56
2019-05-09T15:52:54.536Z,97981.23
2019-05-09T15:55:28.289Z,97982.03
2019-05-09T15:58:04.145Z,97970.15
2019-05-09T16:00:38.830Z,97977.22
2019-05-09T16:03:23.490Z,97976.17
2019-05-09T16:05:58.475Z,97979.76
2019-05-09T16:08:28.998Z,97981.47
2019-05-09T16:11:01.940Z,97987.55
2019-05-09T16:13:37.644Z,97990.69
2019-05-09T16:16:11.959Z,97985.78
2019-05-09T16:18:48.653Z,97980.45
2019-05-09T16:21:31.435Z,97994.31
2019-05-09T16:24:02.269Z,97994.05
2019-05-09T16:26:33.905Z,97986.78
2019-05-09T16:29:04.675Z,98001.65
2019-05-09T16:31:39.288Z,97998.88
2019-05-09T16:34:14.192Z,98002.06
2019-05-09T16:36:47.988Z,98003.33
2019-05-09T16:39:21.674Z,98006.33
2019-05-09T16:41:59.205Z,98003.25
2019-05-09T16:44:31.046Z,98012.62
2019-05-09T16:47:01.896Z,98010.88
2019-05-09T16:49:32.660Z,98015.05
2019-05-09T16:52:03.545Z,98016.71
2019-05-09T16:54:43.214Z,98016.98
2019-05-09T16:57:14.022Z,98020.58
2019-05-09T16:59:47.845Z,98023.41
2019-05-09T17:02:25.261Z,98023.33
2019-05-09T17:05:03.734Z,98015.84
2019-05-09T17:07:38.318Z,98024.37
2019-05-09T17:10:09.968Z,98023.84
2019-05-09T17:12:42.849Z,98023.84
2019-05-09T17:15:19.271Z,98022.81
2019-05-09T17:17:51.754Z,98019.47
2019-05-09T17:20:32.569Z,98019.87
2019-05-09T17:23:15.285Z,98017.36
2019-05-09T17:25:53.001Z,98020.92
2019-05-09T17:28:28.418Z,98019.63
2019-05-09T17:31:02.189Z,98022.25
2019-05-09T17:33:37.941Z,98022.25
2019-05-09T17:36:09.862Z,98023.02
2019-05-09T17:38:44.014Z,98022.50
2019-05-09T17:41:17.855Z,98023.72
2019-05-09T17:43:52.064Z,98030.81
2019-05-09T17:46:27.380Z,98028.75
2019-05-09T17:49:01.938Z,98030.81
2019-05-09T17:51:42.277Z,98036.00
2019-05-09T17:54:15.509Z,98035.17
2019-05-09T17:56:48.261Z,98040.14
2019-05-09T17:59:29.296Z,98041.64
2019-05-09T18:02:01.733Z,98047.76
2019-05-09T18:04:39.129Z,98052.39
2019-05-09T18:07:18.276Z,98046.75
2019-05-09T18:09:53.743Z,98031.09
2019-05-09T18:12:27.695Z,98018.95
2019-05-09T18:15:07.847Z,98018.80
2019-05-09T18:17:47.908Z,98025.20
2019-05-09T18:20:30.105Z,98028.73
2019-05-09T18:23:03.441Z,98034.58
2019-05-09T18:25:41.671Z,98030.61
2019-05-09T18:28:20.762Z,98042.01
2019-05-09T18:30:55.660Z,98032.53
2019-05-09T18:33:37.988Z,98031.44
2019-05-09T18:36:09.099Z,98033.05
2019-05-09T18:38:44.400Z,98033.70
2019-05-09T18:41:28.416Z,98030.96
2019-05-09T18:44:00.596Z,98035.13
2019-05-09T18:46:39.333Z,98039.34
2019-05-09T18:49:18.740Z,98036.17
2019-05-09T18:52:03.902Z,98030.95
2019-05-09T18:54:32.425Z,98029.69
2019-05-09T18:57:09.012Z,98027.91
2019-05-09T18:59:43.772Z,98032.98
2019-05-09T19:02:17.151Z,98020.52
2019-05-09T19:04:50.453Z,98030.89
2019-05-09T19:07:22.886Z,98029.32
2019-05-09T19:09:55.573Z,98040.17
2019-05-09T19:12:30.321Z,98039.84
2019-05-09T19:15:05.430Z,98036.34
2019-05-09T19:17:53.588Z,98040.88
2019-05-09T19:20:38.889Z,98039.04
2019-05-09T19:23:11.496Z,98045.55
2019-05-09T19:25:47.273Z,98040.58
2019-05-09T19:28:24.143Z,98046.00
2019-05-09T19:31:04.844Z,98046.00
2019-05-09T19:33:41.700Z,98050.87
2019-05-09T19:36:15.387Z,98052.00
2019-05-09T19:38:48.658Z,98044.66
2019-05-09T19:41:23.100Z,98048.14
2019-05-09T19:43:58.404Z,98048.58
2019-05-09T19:46:32.129Z,98052.20
2019-05-09T19:49:03.919Z,98051.20
2019-05-09T19:51:39.778Z,98049.41
2019-05-09T19:54:16.037Z,98052.52
2019-05-09T19:56:48.867Z,98054.42
2019-05-09T19:59:22.507Z,98053.02
2019-05-09T20:01:59.614Z,98055.00
2019-05-09T20:04:33.578Z,98055.24
2019-05-09T20:07:11.419Z,98056.30
2019-05-09T20:09:53.382Z,98048.09
2019-05-09T20:12:38.358Z,98058.06
2019-05-09T20:15:13.244Z,98063.69
2019-05-09T20:17:49.675Z,98053.91
2019-05-09T20:20:20.846Z,98051.72
2019-05-09T20:22:55.051Z,98055.88
2019-05-09T20:25:50.076Z,98060.13
2019-05-09T20:28:23.365Z,98051.84
2019-05-09T20:31:00.659Z,98052.52
2019-05-09T20:33:33.423Z,98045.44
2019-05-09T20:36:04.624Z,98051.35
2019-05-09T20:38:38.928Z,98054.77
2019-05-09T20:41:12.847Z,98059.09
2019-05-09T20:43:46.114Z,98057.75
2019-05-09T20:46:24.394Z,98061.13
2019-05-09T20:48:59.124Z,98061.80
2019-05-09T20:51:40.490Z,98057.77
2019-05-09T20:54:20.411Z,98061.88
2019-05-09T20:56:45.974Z,98061.86
2019-05-09T20:59:18.349Z,98057.38
2019-05-09T21:01:51.803Z,98060.75
2019-05-09T21:04:24.513Z,98064.34
2019-05-09T21:06:55.688Z,98065.91
2019-05-09T21:09:27.682Z,98065.52
2019-05-09T21:12:00.012Z,98071.69
2019-05-09T21:14:31.593Z,98068.33
2019-05-09T21:17:03.573Z,98065.14
2019-05-09T21:19:35.832Z,98070.34
2019-05-09T21:22:07.795Z,98067.03
2019-05-09T21:24:39.604Z,98074.98
2019-05-09T21:27:11.511Z,98073.47
2019-05-09T21:29:43.884Z,98072.95
2019-05-09T21:32:15.798Z,98076.42
2019-05-09T21:34:46.643Z,98080.48
2019-05-09T21:37:18.581Z,98079.34
2019-05-09T21:39:49.465Z,98073.63
2019-05-09T21:42:20.468Z,98077.09
2019-05-09T21:44:51.371Z,98082.13
2019-05-09T21:47:22.281Z,98078.25
2019-05-09T21:49:53.029Z,98079.47
2019-05-09T21:52:23.900Z,98087.91
2019-05-09T21:54:55.158Z,98082.05
2019-05-09T21:57:26.029Z,98088.32
2019-05-09T21:59:57.003Z,98090.07
2019-05-09T22:02:27.941Z,98085.45
2019-05-09T22:04:58.876Z,98093.64
2019-05-09T22:07:29.897Z,98093.80
2019-05-09T22:10:00.732Z,98093.53
2019-05-09T22:12:31.446Z,98094.02
2019-05-09T22:15:04.064Z,98097.52
2019-05-09T22:17:38.523Z,98097.93
2019-05-09T22:20:12.228Z,98099.22
2019-05-09T22:22:42.940Z,98101.20
2019-05-09T22:25:14.108Z,98101.05
2019-05-09T22:27:45.070Z,98097.38
2019-05-09T22:30:17.163Z,98096.84
2019-05-09T22:32:48.028Z,98095.89
2019-05-09T22:35:24.948Z,98096.03
2019-05-09T22:37:55.849Z,98093.20
2019-05-09T22:40:26.752Z,98089.73
2019-05-09T22:42:57.678Z,98089.13
2019-05-09T22:45:28.450Z,98093.19
2019-05-09T22:47:59.268Z,98098.08
2019-05-09T22:50:30.073Z,98096.66
2019-05-09T22:53:07.448Z,98096.56
2019-05-09T22:55:44.522Z,98094.55
2019-05-09T22:58:21.307Z,98100.09
2019-05-09T23:00:59.658Z,98102.38
2019-05-09T23:03:36.286Z,98099.01
2019-05-09T23:06:16.336Z,98097.26
2019-05-09T23:08:54.236Z,98100.30
2019-05-09T23:11:36.537Z,98101.52
2019-05-09T23:14:18.647Z,98099.08
2019-05-09T23:16:59.508Z,98095.89
2019-05-09T23:19:38.653Z,98087.22
2019-05-09T23:22:14.592Z,98090.95
2019-05-09T23:24:54.033Z,98087.09
2019-05-09T23:27:29.777Z,98089.95
2019-05-09T23:30:05.318Z,98082.00
2019-05-09T23:32:45.477Z,98081.25
2019-05-09T23:35:21.656Z,98088.17
2019-05-09T23:37:58.097Z,98082.27
2019-05-09T23:40:32.822Z,98075.02
2019-05-09T23:43:09.079Z,98075.77
2019-05-09T23:45:45.036Z,98086.53
2019-05-09T23:48:19.769Z,98093.84
2019-05-09T23:50:56.438Z,98091.20
2019-05-09T23:53:39.147Z,98094.08
2019-05-09T23:56:33.331Z,98088.58
2019-05-09T23:59:28.227Z,98089.87
